Kingston, New Mexico
Current Conditions -  °F | °C
As of 9:53 AM on Tuesday 27 Jan 2015 (Local Time) from KTCS Reporting Station
Clear Clear  
Wind Chill: 10°   Ceiling: Unl
Heat Index: 10°   Visibility: 10mi
Dew Point: -1°   Wind: 3mph
Humidity: 46%   Direction: 200°SSW
Pressure: 30.36"   Gusts: NA
Location:  32.8972°N, 107.644°W
Report Text: KTCS 271653Z AUTO 20003KT 10SM CLR 10/M01 A3036 RMK AO2 SLP252 T01001011 TSNO
Loading
Personal Weather Stations






























Interactive Weather Map New forecast layout! Learn more

10-Day Weather Forecast

Advertisements
Track Severe Weather on mobile